createdAt,value
2023-05-19T00:01:44.174Z,85.23
2023-05-19T00:04:15.357Z,85.16
2023-05-19T00:06:51.101Z,85.22
2023-05-19T00:09:20.827Z,85.00
2023-05-19T00:11:50.920Z,85.43
2023-05-19T00:14:21.093Z,85.05
2023-05-19T00:16:51.001Z,84.64
2023-05-19T00:19:20.328Z,84.66
2023-05-19T00:21:49.717Z,84.74
2023-05-19T00:24:18.952Z,84.87
2023-05-19T00:26:48.409Z,85.38
2023-05-19T00:29:19.397Z,85.09
2023-05-19T00:31:48.936Z,85.74
2023-05-19T00:34:18.260Z,85.64
2023-05-19T00:36:47.455Z,85.64
2023-05-19T00:39:17.688Z,85.78
2023-05-19T00:41:47.063Z,86.46
2023-05-19T00:44:16.591Z,87.45
2023-05-19T00:46:46.220Z,89.13
2023-05-19T00:49:16.255Z,89.30
2023-05-19T00:51:46.443Z,89.24
2023-05-19T00:54:16.883Z,89.07
2023-05-19T00:56:46.269Z,88.72
2023-05-19T00:59:16.900Z,88.43
2023-05-19T01:01:49.107Z,88.91
2023-05-19T01:04:22.360Z,88.63
2023-05-19T01:06:55.543Z,88.33
2023-05-19T01:09:24.950Z,88.08
2023-05-19T01:11:54.459Z,87.93
2023-05-19T01:14:24.178Z,87.87
2023-05-19T01:17:05.858Z,88.03
2023-05-19T01:19:56.423Z,87.89
2023-05-19T01:22:44.441Z,88.27
2023-05-19T01:25:44.836Z,88.25
2023-05-19T01:28:35.026Z,88.51
2023-05-19T01:31:07.577Z,88.34
2023-05-19T01:33:39.614Z,88.63
2023-05-19T01:36:11.974Z,89.05
2023-05-19T01:38:43.510Z,89.44
2023-05-19T01:41:14.431Z,89.50
2023-05-19T01:43:44.800Z,89.55
2023-05-19T01:46:15.354Z,89.51
2023-05-19T01:48:45.922Z,89.97
2023-05-19T01:51:16.090Z,90.38
2023-05-19T01:53:45.653Z,91.18
2023-05-19T01:56:24.084Z,91.65
2023-05-19T01:59:04.655Z,92.19
2023-05-19T02:01:57.398Z,93.17
2023-05-19T02:04:49.554Z,93.59
2023-05-19T02:07:42.729Z,93.70
2023-05-19T02:10:23.244Z,93.75
2023-05-19T02:12:54.503Z,94.79
2023-05-19T02:15:35.676Z,95.64
2023-05-19T02:18:06.535Z,95.69
2023-05-19T02:20:35.898Z,95.67
2023-05-19T02:23:05.603Z,96.01
2023-05-19T02:25:35.228Z,97.00
2023-05-19T02:28:04.933Z,97.04
2023-05-19T02:30:34.437Z,97.61
2023-05-19T02:33:06.595Z,97.67
2023-05-19T02:35:36.232Z,97.64
2023-05-19T02:38:05.374Z,97.68
2023-05-19T02:40:34.718Z,97.61
2023-05-19T02:43:04.286Z,97.48
2023-05-19T02:45:33.620Z,97.48
2023-05-19T02:48:03.520Z,97.45
2023-05-19T02:50:33.188Z,97.59
2023-05-19T02:53:02.974Z,97.90
2023-05-19T02:55:32.360Z,97.94
2023-05-19T02:58:01.981Z,98.40
2023-05-19T03:00:31.677Z,98.55
2023-05-19T03:03:03.094Z,98.94
2023-05-19T03:05:32.839Z,99.38
2023-05-19T03:08:02.314Z,99.83
2023-05-19T03:10:31.793Z,100.00
2023-05-19T03:13:01.515Z,100.00
2023-05-19T03:15:31.167Z,100.00
2023-05-19T03:18:00.307Z,100.00
2023-05-19T03:20:30.729Z,100.00
2023-05-19T03:23:01.647Z,100.00
2023-05-19T03:25:31.543Z,100.00
2023-05-19T03:28:01.723Z,100.00
2023-05-19T03:30:31.419Z,100.00
2023-05-19T03:33:12.416Z,100.00
2023-05-19T03:35:42.394Z,100.00
2023-05-19T03:38:12.117Z,100.00
2023-05-19T03:40:43.433Z,100.00
2023-05-19T03:43:13.372Z,100.00
2023-05-19T03:45:48.636Z,100.00
2023-05-19T03:48:52.295Z,100.00
2023-05-19T03:51:30.409Z,100.00
2023-05-19T03:54:06.417Z,100.00
2023-05-19T03:56:43.088Z,100.00
2023-05-19T03:59:12.642Z,100.00
2023-05-19T04:01:42.259Z,100.00
2023-05-19T04:04:11.644Z,100.00
2023-05-19T04:06:41.056Z,100.00
2023-05-19T04:09:16.161Z,100.00
2023-05-19T04:11:46.309Z,100.00
2023-05-19T04:14:16.177Z,99.32
2023-05-19T04:16:46.051Z,96.84
2023-05-19T04:19:15.333Z,94.87
2023-05-19T04:21:44.952Z,92.01
2023-05-19T04:24:14.128Z,89.02
2023-05-19T04:26:47.379Z,86.71
2023-05-19T04:29:19.301Z,83.83
2023-05-19T04:31:49.648Z,79.96
2023-05-19T04:34:20.155Z,76.83
2023-05-19T04:36:52.476Z,73.03
2023-05-19T04:39:24.388Z,71.12
2023-05-19T04:41:54.425Z,68.56
2023-05-19T04:44:23.624Z,66.75
2023-05-19T04:46:54.718Z,66.89
2023-05-19T04:49:24.662Z,63.80
2023-05-19T04:51:55.915Z,64.57
2023-05-19T04:54:28.646Z,63.58
2023-05-19T04:56:58.315Z,61.61
2023-05-19T04:59:28.865Z,59.45
2023-05-19T05:01:58.421Z,60.51
2023-05-19T05:04:28.672Z,60.39
2023-05-19T05:06:58.157Z,58.14
2023-05-19T05:09:27.872Z,55.11
2023-05-19T05:11:58.336Z,54.79
2023-05-19T05:14:28.420Z,56.20
2023-05-19T05:16:58.730Z,56.36
2023-05-19T05:19:29.023Z,55.39
2023-05-19T05:21:59.164Z,55.98
2023-05-19T05:24:29.230Z,55.04
2023-05-19T05:27:01.544Z,53.71
2023-05-19T05:29:31.499Z,52.51
2023-05-19T05:32:01.037Z,53.24
2023-05-19T05:34:30.625Z,52.97
2023-05-19T05:37:00.018Z,49.94
2023-05-19T05:39:31.991Z,49.53
2023-05-19T05:42:02.521Z,49.28
2023-05-19T05:44:32.439Z,50.13
2023-05-19T05:47:03.943Z,49.40
2023-05-19T05:49:36.726Z,48.41
2023-05-19T05:52:09.484Z,47.79
2023-05-19T05:54:44.594Z,49.06
2023-05-19T05:57:15.408Z,49.37
2023-05-19T05:59:47.376Z,49.00
2023-05-19T06:02:18.335Z,49.44
2023-05-19T06:04:48.122Z,49.51
2023-05-19T06:07:17.531Z,48.60
2023-05-19T06:09:47.336Z,48.08
2023-05-19T06:12:17.428Z,46.03
2023-05-19T06:14:50.367Z,45.20
2023-05-19T06:17:31.384Z,45.30
2023-05-19T06:20:00.557Z,44.20
2023-05-19T06:22:29.716Z,43.63
2023-05-19T06:24:59.296Z,41.77
2023-05-19T06:27:28.652Z,40.72
2023-05-19T06:29:57.946Z,40.98
2023-05-19T06:32:29.892Z,40.00
2023-05-19T06:35:00.207Z,40.22
2023-05-19T06:37:29.495Z,39.85
2023-05-19T06:39:59.542Z,39.18
2023-05-19T06:42:29.265Z,39.37
2023-05-19T06:45:00.965Z,38.87
2023-05-19T06:47:30.229Z,38.96
2023-05-19T06:49:59.496Z,39.05
2023-05-19T06:52:31.975Z,37.42
2023-05-19T06:55:03.043Z,37.48
2023-05-19T06:57:33.352Z,38.11
2023-05-19T07:00:04.508Z,38.61
2023-05-19T07:02:34.082Z,37.48
2023-05-19T07:05:08.256Z,37.90
2023-05-19T07:07:38.147Z,38.64
2023-05-19T07:10:09.724Z,38.01
2023-05-19T07:12:39.077Z,37.30
2023-05-19T07:15:09.738Z,37.51
2023-05-19T07:17:40.102Z,38.08
2023-05-19T07:20:11.002Z,37.37
2023-05-19T07:22:41.101Z,36.98
2023-05-19T07:25:10.700Z,36.96
2023-05-19T07:27:40.220Z,36.36
2023-05-19T07:30:10.468Z,36.61
2023-05-19T07:32:39.982Z,35.25
2023-05-19T07:35:10.216Z,35.01
2023-05-19T07:37:39.757Z,35.83
2023-05-19T07:40:10.079Z,37.15
2023-05-19T07:42:39.327Z,36.29
2023-05-19T07:45:09.713Z,35.84
2023-05-19T07:47:39.163Z,36.01
2023-05-19T07:50:09.147Z,36.84
2023-05-19T07:52:38.422Z,36.18
2023-05-19T07:55:07.599Z,35.25
2023-05-19T07:57:36.942Z,35.95
2023-05-19T08:00:10.166Z,34.88
2023-05-19T08:02:41.848Z,34.37
2023-05-19T08:05:11.819Z,33.88
2023-05-19T08:07:41.119Z,35.38
2023-05-19T08:10:10.922Z,35.08
2023-05-19T08:12:40.628Z,34.69
2023-05-19T08:15:13.613Z,34.45
2023-05-19T08:17:42.932Z,34.43
2023-05-19T08:20:12.835Z,34.81
2023-05-19T08:22:42.130Z,34.93
2023-05-19T08:25:11.947Z,35.91
2023-05-19T08:27:41.831Z,36.52
2023-05-19T08:30:12.093Z,36.57
2023-05-19T08:32:41.923Z,36.23
2023-05-19T08:35:11.526Z,36.87
2023-05-19T08:37:41.213Z,37.76
2023-05-19T08:40:17.429Z,37.62
2023-05-19T08:42:47.190Z,38.05
2023-05-19T08:45:17.205Z,37.76
2023-05-19T08:47:47.572Z,37.55
2023-05-19T08:50:25.045Z,37.26
2023-05-19T08:53:33.946Z,37.59
2023-05-19T08:56:20.117Z,37.52
2023-05-19T08:58:51.355Z,37.16
2023-05-19T09:01:22.797Z,38.66
2023-05-19T09:03:52.369Z,39.31
2023-05-19T09:06:21.673Z,39.11
2023-05-19T09:08:51.365Z,39.67
2023-05-19T09:11:22.764Z,39.01
2023-05-19T09:13:52.449Z,39.77
2023-05-19T09:16:22.293Z,39.13
2023-05-19T09:18:57.121Z,38.96
2023-05-19T09:21:33.335Z,38.90
2023-05-19T09:24:08.488Z,39.55
2023-05-19T09:26:43.080Z,38.11
2023-05-19T09:29:16.697Z,37.93
2023-05-19T09:31:54.497Z,38.39
2023-05-19T09:34:25.272Z,37.71
2023-05-19T09:36:54.937Z,36.61
2023-05-19T09:39:25.347Z,35.63
2023-05-19T09:41:56.322Z,35.92
2023-05-19T09:44:32.720Z,35.99
2023-05-19T09:47:02.487Z,35.49
2023-05-19T09:49:33.095Z,35.20
2023-05-19T09:52:04.266Z,35.73
2023-05-19T09:54:34.707Z,36.16
2023-05-19T09:57:08.333Z,36.60
2023-05-19T09:59:39.317Z,37.32
2023-05-19T10:02:17.630Z,37.98
2023-05-19T10:04:48.568Z,36.78
2023-05-19T10:07:21.381Z,36.71
2023-05-19T10:09:53.339Z,36.66
2023-05-19T10:12:24.489Z,36.81
2023-05-19T10:14:55.240Z,35.66
2023-05-19T10:17:26.345Z,36.32
2023-05-19T10:19:55.746Z,36.06
2023-05-19T10:22:25.054Z,34.96
2023-05-19T10:24:56.116Z,36.65
2023-05-19T10:27:28.361Z,36.67
2023-05-19T10:30:04.967Z,35.72
2023-05-19T10:32:34.847Z,34.95
2023-05-19T10:35:54.935Z,33.93
2023-05-19T10:38:59.171Z,33.14
2023-05-19T10:42:10.048Z,32.18
2023-05-19T10:45:19.078Z,30.75
2023-05-19T10:47:51.676Z,30.15
2023-05-19T10:50:21.251Z,28.82
2023-05-19T10:52:56.085Z,29.65
2023-05-19T10:56:04.352Z,30.56
2023-05-19T10:58:45.886Z,31.14
2023-05-19T11:01:18.068Z,31.28
2023-05-19T11:03:57.261Z,31.40
2023-05-19T11:06:36.338Z,31.75
2023-05-19T11:09:19.450Z,30.78
2023-05-19T11:11:54.329Z,31.00
2023-05-19T11:14:27.714Z,31.48
2023-05-19T11:16:59.026Z,31.11
2023-05-19T11:19:31.428Z,29.78
2023-05-19T11:22:11.346Z,30.04
2023-05-19T11:24:50.398Z,29.42
2023-05-19T11:27:31.638Z,30.07
2023-05-19T11:30:19.392Z,29.72
2023-05-19T11:32:48.918Z,29.85
2023-05-19T11:35:21.411Z,29.64
2023-05-19T11:37:54.379Z,29.08
2023-05-19T11:40:24.178Z,28.33
2023-05-19T11:42:53.573Z,27.82
2023-05-19T11:45:27.077Z,27.88
2023-05-19T11:48:02.747Z,27.88
2023-05-19T11:50:33.405Z,27.22
2023-05-19T11:53:03.073Z,26.80
2023-05-19T11:55:32.981Z,27.10
2023-05-19T11:58:05.828Z,27.43
2023-05-19T12:00:41.384Z,27.39
2023-05-19T12:03:10.920Z,27.63
2023-05-19T12:05:46.586Z,27.61
2023-05-19T12:08:20.301Z,26.79
2023-05-19T12:10:51.121Z,26.04
2023-05-19T12:13:21.117Z,25.70
2023-05-19T12:15:53.747Z,25.69
2023-05-19T12:18:23.410Z,26.10
2023-05-19T12:20:52.700Z,26.55
2023-05-19T12:23:22.946Z,27.49
2023-05-19T12:25:53.356Z,28.16
2023-05-19T12:28:22.688Z,28.69
2023-05-19T12:30:53.895Z,29.27
2023-05-19T12:33:24.493Z,29.31
2023-05-19T12:35:54.865Z,27.11
2023-05-19T12:38:24.294Z,26.71
2023-05-19T12:40:53.450Z,27.50
2023-05-19T12:43:23.504Z,26.83
2023-05-19T12:45:53.616Z,26.46
2023-05-19T12:48:23.122Z,27.16
2023-05-19T12:50:56.267Z,27.00
2023-05-19T12:53:28.281Z,27.14
2023-05-19T12:55:57.794Z,27.31
2023-05-19T12:58:27.073Z,26.97
2023-05-19T13:01:00.348Z,25.99
2023-05-19T13:03:29.825Z,26.54
2023-05-19T13:06:00.136Z,26.77
2023-05-19T13:08:29.998Z,26.16
2023-05-19T13:10:59.510Z,26.20
2023-05-19T13:13:29.121Z,25.63
2023-05-19T13:15:58.372Z,25.18
2023-05-19T13:18:27.974Z,24.70
2023-05-19T13:20:57.433Z,24.57
2023-05-19T13:23:26.735Z,24.93
2023-05-19T13:25:55.782Z,25.43
2023-05-19T13:28:25.330Z,26.06
2023-05-19T13:30:55.480Z,26.16
2023-05-19T13:33:24.860Z,26.38
2023-05-19T13:35:54.261Z,26.00
2023-05-19T13:38:23.562Z,25.45
2023-05-19T13:40:52.889Z,25.25
2023-05-19T13:43:22.159Z,25.62
2023-05-19T13:45:51.386Z,25.84
2023-05-19T13:48:20.805Z,26.21
2023-05-19T13:50:52.750Z,25.54
2023-05-19T13:53:22.132Z,25.42
2023-05-19T13:55:53.398Z,25.30
2023-05-19T13:58:22.591Z,25.75
2023-05-19T14:00:54.696Z,27.71
2023-05-19T14:03:25.292Z,29.87
2023-05-19T14:05:54.772Z,32.17
2023-05-19T14:08:24.183Z,35.14
2023-05-19T14:10:55.671Z,38.68
2023-05-19T14:13:33.349Z,41.73
2023-05-19T14:16:06.529Z,45.70
2023-05-19T14:18:35.858Z,48.43
2023-05-19T14:21:06.029Z,49.62
2023-05-19T14:23:36.063Z,52.17
2023-05-19T14:26:05.547Z,53.77
2023-05-19T14:28:34.775Z,56.17
2023-05-19T14:31:04.982Z,57.43
2023-05-19T14:33:35.687Z,58.33
2023-05-19T14:36:06.384Z,58.88
2023-05-19T14:38:36.388Z,59.27
2023-05-19T14:41:07.373Z,59.99
2023-05-19T14:43:36.581Z,59.70
2023-05-19T14:46:06.216Z,59.60
2023-05-19T14:48:36.050Z,59.58
2023-05-19T14:51:05.436Z,58.60
2023-05-19T14:53:35.166Z,58.38
2023-05-19T14:56:06.537Z,58.13
2023-05-19T14:58:36.429Z,57.69
2023-05-19T15:01:05.792Z,56.65
2023-05-19T15:03:35.256Z,56.11
2023-05-19T15:06:10.715Z,55.61
2023-05-19T15:08:41.318Z,54.70
2023-05-19T15:11:10.402Z,54.08
2023-05-19T15:13:40.008Z,53.38
2023-05-19T15:18:44.820Z,52.92
2023-05-19T15:21:14.097Z,52.99
2023-05-19T15:23:43.355Z,52.58
2023-05-19T15:26:13.383Z,52.24
2023-05-19T15:28:42.774Z,52.21
2023-05-19T15:31:12.366Z,51.96
2023-05-19T15:33:42.289Z,51.89
2023-05-19T15:36:16.611Z,51.96
2023-05-19T15:38:46.220Z,52.12
2023-05-19T15:41:15.436Z,52.38
2023-05-19T15:43:46.519Z,51.01
2023-05-19T15:46:16.393Z,50.98
2023-05-19T15:48:45.898Z,51.35
2023-05-19T15:51:16.128Z,51.85
2023-05-19T15:53:45.705Z,52.00
2023-05-19T15:56:15.106Z,52.24
2023-05-19T15:58:44.442Z,52.66
2023-05-19T16:01:15.290Z,52.78
2023-05-19T16:03:46.072Z,52.78
2023-05-19T16:06:15.695Z,53.10
2023-05-19T16:08:45.413Z,53.12
2023-05-19T16:11:14.746Z,53.22
2023-05-19T16:13:44.651Z,53.55
2023-05-19T16:16:16.557Z,53.64
2023-05-19T16:18:45.997Z,53.72
2023-05-19T16:21:15.503Z,54.01
2023-05-19T16:23:45.000Z,53.84
2023-05-19T16:26:14.710Z,53.69
2023-05-19T16:28:44.000Z,53.84
2023-05-19T16:31:13.326Z,53.79
2023-05-19T16:33:42.919Z,53.85
2023-05-19T16:36:12.537Z,53.49
2023-05-19T16:38:42.030Z,53.42
2023-05-19T16:41:12.288Z,53.27
2023-05-19T16:43:41.605Z,52.53
2023-05-19T16:46:12.470Z,52.15
2023-05-19T16:48:41.792Z,51.63
2023-05-19T16:51:11.091Z,51.20
2023-05-19T16:53:40.597Z,50.66
2023-05-19T16:56:09.734Z,50.28
2023-05-19T16:58:39.607Z,49.46
2023-05-19T17:01:10.759Z,48.96
2023-05-19T17:03:40.259Z,48.83
2023-05-19T17:06:09.881Z,48.22
2023-05-19T17:08:40.402Z,47.76
2023-05-19T17:11:09.690Z,48.27
2023-05-19T17:13:39.922Z,48.43
2023-05-19T17:16:09.318Z,48.63
2023-05-19T17:18:38.469Z,48.27
2023-05-19T17:21:08.123Z,48.46
2023-05-19T17:23:38.285Z,48.45
2023-05-19T17:26:07.970Z,48.19
2023-05-19T17:28:37.154Z,47.76
2023-05-19T17:31:15.397Z,47.44
2023-05-19T17:33:46.297Z,47.38
2023-05-19T17:36:16.023Z,47.46
2023-05-19T17:38:45.313Z,47.20
2023-05-19T17:41:14.636Z,46.73
2023-05-19T17:43:44.023Z,46.73
2023-05-19T17:46:13.478Z,46.78
2023-05-19T17:48:42.884Z,46.97
2023-05-19T17:51:12.537Z,46.57
2023-05-19T17:53:43.036Z,46.15
2023-05-19T17:56:13.141Z,46.09
2023-05-19T17:58:44.306Z,45.95
2023-05-19T18:01:14.957Z,45.72
2023-05-19T18:03:49.654Z,45.30
2023-05-19T18:06:20.625Z,45.62
2023-05-19T18:08:53.296Z,45.14
2023-05-19T18:11:23.319Z,45.18
2023-05-19T18:13:52.524Z,45.26
2023-05-19T18:16:21.705Z,45.22
2023-05-19T18:18:51.299Z,45.47
2023-05-19T18:21:20.604Z,45.77
2023-05-19T18:23:49.959Z,45.99
2023-05-19T18:26:19.437Z,46.01
2023-05-19T18:28:48.944Z,46.32
2023-05-19T18:31:20.211Z,46.55
2023-05-19T18:33:49.692Z,47.08
2023-05-19T18:36:19.413Z,47.83
2023-05-19T18:38:50.557Z,48.57
2023-05-19T18:41:20.277Z,49.19
2023-05-19T18:43:49.470Z,49.25
2023-05-19T18:46:18.924Z,50.07
2023-05-19T18:48:50.837Z,50.34
2023-05-19T18:51:21.499Z,51.14
2023-05-19T18:53:51.174Z,52.16
2023-05-19T18:56:27.923Z,52.60
2023-05-19T18:58:58.266Z,52.93
2023-05-19T19:01:27.689Z,54.06
2023-05-19T19:03:56.904Z,54.75
2023-05-19T19:06:26.272Z,55.10
2023-05-19T19:08:55.488Z,55.78
2023-05-19T19:11:24.999Z,56.23
2023-05-19T19:13:56.218Z,56.88
2023-05-19T19:16:25.540Z,57.71
2023-05-19T19:18:54.979Z,57.92
2023-05-19T19:21:24.848Z,60.11
2023-05-19T19:23:56.928Z,59.18
2023-05-19T19:26:29.270Z,59.72
2023-05-19T19:28:58.874Z,59.81
2023-05-19T19:31:31.246Z,61.11
2023-05-19T19:34:03.839Z,60.96
2023-05-19T19:36:33.411Z,61.55
2023-05-19T19:39:03.069Z,61.31
2023-05-19T19:41:33.558Z,61.97
2023-05-19T19:44:02.839Z,62.16
2023-05-19T19:46:32.340Z,62.19
2023-05-19T19:49:02.143Z,63.01
2023-05-19T19:51:31.887Z,62.88
2023-05-19T19:54:01.287Z,62.12
2023-05-19T19:56:30.746Z,62.15
2023-05-19T19:59:01.676Z,62.74
2023-05-19T20:01:31.223Z,62.91
2023-05-19T20:04:01.151Z,63.27
2023-05-19T20:06:31.225Z,63.47
2023-05-19T20:09:00.601Z,63.83
2023-05-19T20:11:30.957Z,63.67
2023-05-19T20:14:00.645Z,63.92
2023-05-19T20:16:30.104Z,63.79
2023-05-19T20:18:59.676Z,63.73
2023-05-19T20:21:29.472Z,63.88
2023-05-19T20:23:59.067Z,64.44
2023-05-19T20:26:29.516Z,64.68
2023-05-19T20:28:59.322Z,64.98
2023-05-19T20:31:28.812Z,64.80
2023-05-19T20:33:59.352Z,64.70
2023-05-19T20:36:30.386Z,64.73
2023-05-19T20:39:00.125Z,64.59
2023-05-19T20:41:29.601Z,64.79
2023-05-19T20:43:58.882Z,64.67
2023-05-19T20:46:28.781Z,65.70
2023-05-19T20:48:58.212Z,65.79
2023-05-19T20:51:27.505Z,65.80
2023-05-19T20:53:57.540Z,66.02
2023-05-19T20:56:26.987Z,66.03
2023-05-19T20:58:56.683Z,66.29
2023-05-19T21:01:26.400Z,66.85
2023-05-19T21:03:56.500Z,67.49
2023-05-19T21:06:25.944Z,67.37
2023-05-19T21:08:55.159Z,67.70
2023-05-19T21:11:24.701Z,68.07
2023-05-19T21:13:56.277Z,68.30
2023-05-19T21:16:26.439Z,68.22
2023-05-19T21:18:55.832Z,68.20
2023-05-19T21:21:26.805Z,68.41
2023-05-19T21:23:56.856Z,68.40
2023-05-19T21:26:26.972Z,68.53
2023-05-19T21:28:56.256Z,69.01
2023-05-19T21:31:25.839Z,68.83
2023-05-19T21:33:55.696Z,68.98
2023-05-19T21:36:25.197Z,68.97
2023-05-19T21:38:54.756Z,69.11
2023-05-19T21:41:24.287Z,69.22
2023-05-19T21:43:53.770Z,69.47
2023-05-19T21:46:23.259Z,69.44
2023-05-19T21:48:52.832Z,69.57
2023-05-19T21:51:22.117Z,69.79
2023-05-19T21:53:51.513Z,70.22
2023-05-19T21:56:21.259Z,70.23
2023-05-19T21:58:50.518Z,70.47
2023-05-19T22:01:19.728Z,71.12
2023-05-19T22:03:49.223Z,71.59
2023-05-19T22:06:18.528Z,71.69
2023-05-19T22:08:48.030Z,72.29
2023-05-19T22:11:18.187Z,72.67
2023-05-19T22:13:47.385Z,73.29
2023-05-19T22:16:16.817Z,73.57
2023-05-19T22:18:46.712Z,74.40
2023-05-19T22:21:16.167Z,75.03
2023-05-19T22:23:45.361Z,75.73
2023-05-19T22:26:14.563Z,76.06
2023-05-19T22:28:43.966Z,76.11
2023-05-19T22:31:13.370Z,76.37
2023-05-19T22:33:42.554Z,76.46
2023-05-19T22:36:11.695Z,77.15
2023-05-19T22:38:41.585Z,77.59
2023-05-19T22:41:11.398Z,77.93
2023-05-19T22:43:41.004Z,78.58
2023-05-19T22:46:10.539Z,78.77
2023-05-19T22:48:39.906Z,79.64
2023-05-19T22:51:09.132Z,79.50
2023-05-19T22:53:38.402Z,80.04
2023-05-19T22:56:07.942Z,80.99
2023-05-19T22:58:37.520Z,81.33
2023-05-19T23:01:06.879Z,80.95
2023-05-19T23:03:36.298Z,80.83
2023-05-19T23:06:05.933Z,81.00
2023-05-19T23:08:35.442Z,81.64
2023-05-19T23:11:05.054Z,82.30
2023-05-19T23:13:34.674Z,83.26
2023-05-19T23:16:06.756Z,83.79
2023-05-19T23:18:36.431Z,84.02
2023-05-19T23:21:06.860Z,84.80
2023-05-19T23:23:37.032Z,85.28
2023-05-19T23:26:07.404Z,85.58
2023-05-19T23:28:36.645Z,86.00
2023-05-19T23:31:06.362Z,86.04
2023-05-19T23:33:35.716Z,86.31
2023-05-19T23:36:10.495Z,86.70
2023-05-19T23:38:40.121Z,86.91
2023-05-19T23:41:09.465Z,87.83
2023-05-19T23:43:39.682Z,88.37
2023-05-19T23:46:09.527Z,88.50
2023-05-19T23:48:39.728Z,88.86
2023-05-19T23:51:09.327Z,88.99
2023-05-19T23:53:38.877Z,89.21
2023-05-19T23:56:08.859Z,89.27
2023-05-19T23:58:38.554Z,90.03
